Time,TemperatureF,DewpointF,PressureIn,WindDirection,WindDirectionDegrees,WindSpeedMPH,WindSpeedGustMPH,Humidity,HourlyPrecipIn,Conditions,Clouds,dailyrainin,SoftwareType,DateUTC
2013-07-05 00:00:00,79.4,61.3,29.95,NNW,332,0.0,0.0,54,0.00,,CLR,0.00,VWS V14.01,2013-07-05 05:00:00,
2013-07-05 00:01:00,79.1,61.6,29.95,WNW,302,0.0,0.0,55,0.00,,CLR,0.00,VWS V14.01,2013-07-05 05:01:00,
2013-07-05 00:06:00,78.9,61.4,29.95,WNW,302,0.0,0.0,55,0.00,,OVC085,0.00,VWS V14.01,2013-07-05 05:06:00,
2013-07-05 00:10:00,79.1,61.6,29.95,NNW,332,0.0,0.0,55,0.00,,CLR,0.00,VWS V14.01,2013-07-05 05:10:00,
2013-07-05 00:11:00,78.9,61.9,29.95,WNW,302,0.0,0.0,56,0.00,,OVC085,0.00,VWS V14.01,2013-07-05 05:11:00,
2013-07-05 00:16:00,78.7,61.2,29.96,WNW,302,0.0,0.0,55,0.00,,OVC085,0.00,VWS V14.01,2013-07-05 05:16:00,
2013-07-05 00:20:00,78.9,61.4,29.95,WNW,302,0.0,0.0,55,0.00,,CLR,0.00,VWS V14.01,2013-07-05 05:20:00,
2013-07-05 00:21:00,78.7,61.7,29.96,WNW,302,0.0,0.0,56,0.00,,OVC085,0.00,VWS V14.01,2013-07-05 05:21:00,
2013-07-05 00:26:00,78.5,62.0,29.96,WNW,302,0.0,0.0,57,0.00,,OVC085,0.00,VWS V14.01,2013-07-05 05:26:00,
2013-07-05 00:30:00,78.7,61.2,29.96,WNW,302,0.0,0.0,55,0.00,,CLR,0.00,VWS V14.01,2013-07-05 05:30:00,
2013-07-05 00:31:00,78.3,61.8,29.96,WNW,302,0.0,0.0,57,0.00,,OVC085,0.00,VWS V14.01,2013-07-05 05:31:00,
2013-07-05 00:36:00,78.1,62.1,29.96,WNW,302,0.0,0.0,58,0.00,,OVC085,0.00,VWS V14.01,2013-07-05 05:36:00,
2013-07-05 00:40:00,78.5,62.0,29.96,WNW,302,0.0,0.0,57,0.00,,CLR,0.00,VWS V14.01,2013-07-05 05:40:00,
2013-07-05 00:41:00,78.0,62.0,29.96,WNW,302,0.0,0.0,58,0.00,,OVC085,0.00,VWS V14.01,2013-07-05 05:41:00,
2013-07-05 00:46:00,77.8,61.9,29.97,WNW,302,0.0,0.0,58,0.00,,OVC085,0.00,VWS V14.01,2013-07-05 05:46:00,
2013-07-05 00:50:00,78.1,62.1,29.96,WNW,302,0.0,0.0,58,0.00,,CLR,0.00,VWS V14.01,2013-07-05 05:50:00,
2013-07-05 00:51:00,77.8,62.8,29.97,WNW,302,0.0,0.0,60,0.00,,OVC085,0.00,VWS V14.01,2013-07-05 05:51:00,
2013-07-05 00:56:00,77.6,63.1,29.97,WNW,302,0.0,0.0,61,0.00,,OVC085,0.00,VWS V14.01,2013-07-05 05:56:00,
2013-07-05 01:00:00,77.8,61.8,29.97,WNW,302,0.0,0.0,58,0.00,,CLR,0.00,VWS V14.01,2013-07-05 06:00:00,
2013-07-05 01:01:00,77.2,62.7,29.96,WNW,302,0.0,0.0,61,0.00,,BKN100,0.00,VWS V14.01,2013-07-05 06:01:00,
2013-07-05 01:06:00,77.2,63.2,29.96,WNW,302,0.0,0.0,62,0.00,,BKN100,0.00,VWS V14.01,2013-07-05 06:06:00,
2013-07-05 01:10:00,77.4,62.9,29.97,WNW,302,0.0,0.0,61,0.00,,CLR,0.00,VWS V14.01,2013-07-05 06:10:00,
2013-07-05 01:11:00,77.1,63.5,29.96,WNW,302,0.0,0.0,63,0.00,,BKN100,0.00,VWS V14.01,2013-07-05 06:11:00,
2013-07-05 01:16:00,76.9,63.4,29.96,WNW,302,0.0,0.0,63,0.00,,BKN100,0.00,VWS V14.01,2013-07-05 06:16:00,
2013-07-05 01:20:00,77.1,63.1,29.96,WNW,302,0.0,0.0,62,0.00,,CLR,0.00,VWS V14.01,2013-07-05 06:20:00,
2013-07-05 01:21:00,76.7,63.6,29.96,WNW,302,0.0,0.0,64,0.00,,BKN100,0.00,VWS V14.01,2013-07-05 06:21:00,
2013-07-05 01:26:00,76.7,64.5,29.96,WNW,302,0.0,0.0,66,0.00,,BKN100,0.00,VWS V14.01,2013-07-05 06:26:00,
2013-07-05 01:30:00,76.9,63.4,29.96,WNW,302,0.0,0.0,63,0.00,,CLR,0.00,VWS V14.01,2013-07-05 06:30:00,
2013-07-05 01:31:00,76.5,64.3,29.97,WNW,302,0.0,0.0,66,0.00,,BKN100,0.00,VWS V14.01,2013-07-05 06:31:00,
2013-07-05 01:36:00,76.3,64.1,29.97,WNW,302,0.0,0.0,66,0.00,,BKN100,0.00,VWS V14.01,2013-07-05 06:36:00,
2013-07-05 01:40:00,76.7,64.5,29.96,WNW,302,0.0,0.0,66,0.00,,CLR,0.00,VWS V14.01,2013-07-05 06:40:00,
2013-07-05 01:41:00,76.3,65.0,29.97,WNW,302,0.0,0.0,68,0.00,,BKN100,0.00,VWS V14.01,2013-07-05 06:41:00,
2013-07-05 01:46:00,76.0,64.7,29.97,WNW,302,0.0,0.0,68,0.00,,BKN100,0.00,VWS V14.01,2013-07-05 06:46:00,
2013-07-05 01:50:00,76.3,64.6,29.97,WNW,302,0.0,0.0,67,0.00,,CLR,0.00,VWS V14.01,2013-07-05 06:50:00,
2013-07-05 01:51:00,75.8,64.5,29.97,WNW,302,0.0,0.0,68,0.00,,BKN100,0.00,VWS V14.01,2013-07-05 06:51:00,
2013-07-05 01:56:00,75.5,65.0,29.97,WNW,302,0.0,0.0,70,0.00,,BKN100,0.00,VWS V14.01,2013-07-05 06:56:00,
2013-07-05 02:00:00,76.0,64.7,29.97,WNW,302,0.0,0.0,68,0.00,,CLR,0.00,VWS V14.01,2013-07-05 07:00:00,
2013-07-05 02:01:00,75.3,65.3,29.96,WNW,302,0.0,0.0,71,0.00,,BKN100,0.00,VWS V14.01,2013-07-05 07:01:00,
2013-07-05 02:06:00,75.1,65.1,29.96,WNW,302,0.0,0.0,71,0.00,,SCT090,0.00,VWS V14.01,2013-07-05 07:06:00,
2013-07-05 02:10:00,75.5,65.0,29.97,WNW,302,0.0,0.0,70,0.00,,CLR,0.00,VWS V14.01,2013-07-05 07:10:00,
2013-07-05 02:11:00,74.9,65.3,29.96,WNW,302,0.0,0.0,72,0.00,,SCT090,0.00,VWS V14.01,2013-07-05 07:11:00,
2013-07-05 02:16:00,74.6,65.0,29.97,WNW,302,0.0,0.0,72,0.00,,SCT090,0.00,VWS V14.01,2013-07-05 07:16:00,
2013-07-05 02:20:00,75.1,65.1,29.96,WNW,302,0.0,0.0,71,0.00,,CLR,0.00,VWS V14.01,2013-07-05 07:20:00,
2013-07-05 02:21:00,74.2,65.0,29.97,WNW,302,0.0,0.0,73,0.00,,SCT090,0.00,VWS V14.01,2013-07-05 07:21:00,
2013-07-05 02:26:00,74.1,64.9,29.97,WNW,302,0.0,0.0,73,0.00,,SCT090,0.00,VWS V14.01,2013-07-05 07:26:00,
2013-07-05 02:30:00,74.6,65.0,29.97,WNW,302,0.0,0.0,72,0.00,,CLR,0.00,VWS V14.01,2013-07-05 07:30:00,
2013-07-05 02:31:00,73.7,64.9,29.97,WNW,302,0.0,0.0,74,0.00,,SCT090,0.00,VWS V14.01,2013-07-05 07:31:00,
2013-07-05 02:36:00,73.4,65.4,29.97,WNW,302,0.0,0.0,76,0.00,,SCT090,0.00,VWS V14.01,2013-07-05 07:36:00,
2013-07-05 02:40:00,74.1,64.9,29.97,WNW,302,0.0,0.0,73,0.00,,CLR,0.00,VWS V14.01,2013-07-05 07:40:00,
2013-07-05 02:41:00,73.0,65.0,29.97,WNW,302,0.0,0.0,76,0.00,,SCT090,0.00,VWS V14.01,2013-07-05 07:41:00,
2013-07-05 02:46:00,72.7,65.1,29.97,WNW,302,0.0,0.0,77,0.00,,SCT090,0.00,VWS V14.01,2013-07-05 07:46:00,
2013-07-05 02:50:00,73.2,65.2,29.97,WNW,302,0.0,0.0,76,0.00,,CLR,0.00,VWS V14.01,2013-07-05 07:50:00,
2013-07-05 02:51:00,72.5,65.3,29.97,WNW,302,0.0,0.0,78,0.00,,SCT090,0.00,VWS V14.01,2013-07-05 07:51:00,
2013-07-05 02:56:00,72.2,65.0,29.97,WNW,302,0.0,0.0,78,0.00,,SCT090,0.00,VWS V14.01,2013-07-05 07:56:00,
2013-07-05 03:00:00,72.7,65.1,29.97,WNW,302,0.0,0.0,77,0.00,,CLR,0.00,VWS V14.01,2013-07-05 08:00:00,
2013-07-05 03:01:00,72.0,65.1,29.97,WNW,302,0.0,0.0,79,0.00,,SCT090,0.00,VWS V14.01,2013-07-05 08:01:00,
2013-07-05 03:06:00,71.8,64.9,29.97,WNW,302,0.0,0.0,79,0.00,,CLR,0.00,VWS V14.01,2013-07-05 08:06:00,
2013-07-05 03:10:00,72.2,65.0,29.97,WNW,302,0.0,0.0,78,0.00,,CLR,0.00,VWS V14.01,2013-07-05 08:10:00,
2013-07-05 03:11:00,71.6,65.1,29.97,WNW,302,0.0,0.0,80,0.00,,CLR,0.00,VWS V14.01,2013-07-05 08:11:00,
2013-07-05 03:16:00,71.6,65.5,29.96,WNW,302,0.0,0.0,81,0.00,,CLR,0.00,VWS V14.01,2013-07-05 08:16:00,
2013-07-05 03:20:00,71.8,64.9,29.97,WNW,302,0.0,0.0,79,0.00,,CLR,0.00,VWS V14.01,2013-07-05 08:20:00,
2013-07-05 03:21:00,71.5,65.7,29.96,WNW,302,0.0,0.0,82,0.00,,CLR,0.00,VWS V14.01,2013-07-05 08:21:00,
2013-07-05 03:26:00,71.1,65.3,29.96,WNW,302,0.0,0.0,82,0.00,,CLR,0.00,VWS V14.01,2013-07-05 08:26:00,
2013-07-05 03:30:00,71.5,65.4,29.96,WNW,302,0.0,0.0,81,0.00,,CLR,0.00,VWS V14.01,2013-07-05 08:30:00,
2013-07-05 03:31:00,71.0,65.6,29.96,WNW,302,0.0,0.0,83,0.00,,CLR,0.00,VWS V14.01,2013-07-05 08:31:00,
2013-07-05 03:36:00,70.8,65.4,29.96,WNW,302,0.0,0.0,83,0.00,,CLR,0.00,VWS V14.01,2013-07-05 08:36:00,
2013-07-05 03:40:00,71.1,65.3,29.96,WNW,302,0.0,0.0,82,0.00,,CLR,0.00,VWS V14.01,2013-07-05 08:40:00,
2013-07-05 03:41:00,70.8,65.7,29.96,WNW,302,0.0,0.0,84,0.00,,CLR,0.00,VWS V14.01,2013-07-05 08:41:00,
2013-07-05 03:46:00,70.6,65.5,29.95,WNW,302,0.0,0.0,84,0.00,,CLR,0.00,VWS V14.01,2013-07-05 08:46:00,
2013-07-05 03:50:00,70.8,65.4,29.96,WNW,302,0.0,0.0,83,0.00,,CLR,0.00,VWS V14.01,2013-07-05 08:50:00,
2013-07-05 03:51:00,70.4,65.7,29.95,WNW,302,0.0,0.0,85,0.00,,CLR,0.00,VWS V14.01,2013-07-05 08:51:00,
2013-07-05 03:56:00,70.4,65.7,29.95,WNW,302,0.0,0.0,85,0.00,,CLR,0.00,VWS V14.01,2013-07-05 08:56:00,
2013-07-05 04:00:00,70.6,65.5,29.95,WNW,302,0.0,0.0,84,0.00,,CLR,0.00,VWS V14.01,2013-07-05 09:00:00,
2013-07-05 04:02:00,70.3,65.6,29.95,WNW,302,0.0,0.0,85,0.00,,CLR,0.00,VWS V14.01,2013-07-05 09:02:00,
2013-07-05 04:07:00,70.1,65.7,29.95,WNW,302,0.0,0.0,86,0.00,,CLR,0.00,VWS V14.01,2013-07-05 09:07:00,
2013-07-05 04:10:00,70.3,65.6,29.95,WNW,302,0.0,0.0,85,0.00,,CLR,0.00,VWS V14.01,2013-07-05 09:10:00,
2013-07-05 04:12:00,69.9,65.5,29.95,WNW,302,0.0,0.0,86,0.00,,CLR,0.00,VWS V14.01,2013-07-05 09:12:00,
2013-07-05 04:17:00,69.8,65.4,29.95,WNW,302,0.0,0.0,86,0.00,,CLR,0.00,VWS V14.01,2013-07-05 09:17:00,
2013-07-05 04:20:00,70.1,65.7,29.95,WNW,302,0.0,0.0,86,0.00,,CLR,0.00,VWS V14.01,2013-07-05 09:20:00,
2013-07-05 04:22:00,69.6,65.2,29.95,WNW,302,0.0,0.0,86,0.00,,CLR,0.00,VWS V14.01,2013-07-05 09:22:00,
2013-07-05 04:27:00,69.4,65.4,29.95,WNW,302,0.0,0.0,87,0.00,,CLR,0.00,VWS V14.01,2013-07-05 09:27:00,
2013-07-05 04:30:00,69.8,65.4,29.95,WNW,302,0.0,0.0,86,0.00,,CLR,0.00,VWS V14.01,2013-07-05 09:30:00,
2013-07-05 04:33:00,69.3,65.3,29.95,WNW,302,0.0,0.0,87,0.00,,CLR,0.00,VWS V14.01,2013-07-05 09:33:00,
2013-07-05 04:38:00,69.1,65.1,29.95,WNW,302,0.0,0.0,87,0.00,,CLR,0.00,VWS V14.01,2013-07-05 09:38:00,
2013-07-05 04:40:00,69.4,65.4,29.95,WNW,302,0.0,0.0,87,0.00,,CLR,0.00,VWS V14.01,2013-07-05 09:40:00,
2013-07-05 04:43:00,69.1,65.1,29.95,WNW,302,0.0,0.0,87,0.00,,CLR,0.00,VWS V14.01,2013-07-05 09:43:00,
2013-07-05 04:48:00,68.9,65.2,29.95,WNW,302,0.0,0.0,88,0.00,,CLR,0.00,VWS V14.01,2013-07-05 09:48:00,
2013-07-05 04:50:00,69.3,65.3,29.95,WNW,302,0.0,0.0,87,0.00,,CLR,0.00,VWS V14.01,2013-07-05 09:50:00,
2013-07-05 04:53:00,68.9,65.2,29.95,WNW,302,0.0,0.0,88,0.00,,CLR,0.00,VWS V14.01,2013-07-05 09:53:00,
2013-07-05 04:58:00,68.9,65.2,29.95,WNW,302,0.0,0.0,88,0.00,,CLR,0.00,VWS V14.01,2013-07-05 09:58:00,
2013-07-05 05:00:00,68.9,65.2,29.95,WNW,302,0.0,0.0,88,0.00,,CLR,0.00,VWS V14.01,2013-07-05 10:00:00,
2013-07-05 05:03:00,68.9,65.5,29.95,WNW,302,0.0,0.0,89,0.00,,CLR,0.00,VWS V14.01,2013-07-05 10:03:00,
2013-07-05 05:08:00,68.8,65.4,29.95,WNW,302,0.0,0.0,89,0.00,,CLR,0.00,VWS V14.01,2013-07-05 10:08:00,
2013-07-05 05:10:00,68.9,65.2,29.95,WNW,302,0.0,0.0,88,0.00,,CLR,0.00,VWS V14.01,2013-07-05 10:10:00,
2013-07-05 05:13:00,68.6,64.9,29.95,WNW,302,0.0,0.0,88,0.00,,CLR,0.00,VWS V14.01,2013-07-05 10:13:00,
2013-07-05 05:18:00,68.4,64.7,29.95,WNW,302,0.0,0.0,88,0.00,,CLR,0.00,VWS V14.01,2013-07-05 10:18:00,
2013-07-05 05:20:00,68.9,65.5,29.95,WNW,302,0.0,0.0,89,0.00,,CLR,0.00,VWS V14.01,2013-07-05 10:20:00,
2013-07-05 05:24:00,68.3,64.6,29.95,WNW,302,0.0,0.0,88,0.00,,CLR,0.00,VWS V14.01,2013-07-05 10:24:00,
2013-07-05 05:29:00,68.3,64.9,29.95,WNW,302,0.0,0.0,89,0.00,,CLR,0.00,VWS V14.01,2013-07-05 10:29:00,
2013-07-05 05:30:00,68.4,64.7,29.95,WNW,302,0.0,0.0,88,0.00,,CLR,0.00,VWS V14.01,2013-07-05 10:30:00,
2013-07-05 05:34:00,68.1,64.7,29.95,WNW,302,0.0,0.0,89,0.00,,CLR,0.00,VWS V14.01,2013-07-05 10:34:00,
2013-07-05 05:39:00,68.1,64.7,29.95,WNW,302,0.0,0.0,89,0.00,,CLR,0.00,VWS V14.01,2013-07-05 10:39:00,
2013-07-05 05:40:00,68.3,64.9,29.95,WNW,302,0.0,0.0,89,0.00,,CLR,0.00,VWS V14.01,2013-07-05 10:40:00,
2013-07-05 05:44:00,67.9,64.5,29.95,WNW,302,0.0,0.0,89,0.00,,CLR,0.00,VWS V14.01,2013-07-05 10:44:00,
2013-07-05 05:49:00,67.8,64.4,29.95,WNW,302,0.0,0.0,89,0.00,,CLR,0.00,VWS V14.01,2013-07-05 10:49:00,
2013-07-05 05:50:00,68.1,64.7,29.95,WNW,302,0.0,0.0,89,0.00,,CLR,0.00,VWS V14.01,2013-07-05 10:50:00,
2013-07-05 05:55:00,67.8,64.8,29.95,WNW,302,0.0,0.0,90,0.00,,CLR,0.00,VWS V14.01,2013-07-05 10:55:00,
2013-07-05 06:00:00,67.8,64.8,29.95,WNW,302,0.0,0.0,90,0.00,,CLR,0.00,VWS V14.01,2013-07-05 11:00:00,
2013-07-05 06:05:00,67.6,64.6,29.95,WNW,302,0.0,0.0,90,0.00,,CLR,0.00,VWS V14.01,2013-07-05 11:05:00,
2013-07-05 06:10:00,67.6,64.6,29.95,WNW,302,0.0,0.0,90,0.00,,CLR,0.00,VWS V14.01,2013-07-05 11:10:00,
2013-07-05 06:15:00,67.6,64.6,29.95,WNW,302,0.0,0.0,90,0.00,,CLR,0.00,VWS V14.01,2013-07-05 11:15:00,
2013-07-05 06:20:00,67.4,64.4,29.95,WNW,302,0.0,0.0,90,0.00,,CLR,0.00,VWS V14.01,2013-07-05 11:20:00,
2013-07-05 06:26:00,67.4,64.4,29.95,WNW,302,0.0,0.0,90,0.00,,CLR,0.00,VWS V14.01,2013-07-05 11:26:00,
2013-07-05 06:30:00,67.6,64.6,29.95,WNW,302,0.0,0.0,90,0.00,,CLR,0.00,VWS V14.01,2013-07-05 11:30:00,
2013-07-05 06:31:00,67.4,64.4,29.95,WNW,302,0.0,0.0,90,0.00,,CLR,0.00,VWS V14.01,2013-07-05 11:31:00,
2013-07-05 06:36:00,67.3,64.3,29.95,WNW,302,0.0,0.0,90,0.00,,CLR,0.00,VWS V14.01,2013-07-05 11:36:00,
2013-07-05 06:40:00,67.4,64.4,29.95,WNW,302,0.0,0.0,90,0.00,,CLR,0.00,VWS V14.01,2013-07-05 11:40:00,
2013-07-05 06:42:00,67.3,64.6,29.95,WNW,302,0.0,0.0,91,0.00,,CLR,0.00,VWS V14.01,2013-07-05 11:42:00,
2013-07-05 06:47:00,67.1,64.4,29.96,WNW,302,0.0,0.0,91,0.00,,CLR,0.00,VWS V14.01,2013-07-05 11:47:00,
2013-07-05 06:50:00,67.3,64.3,29.95,WNW,302,0.0,0.0,90,0.00,,CLR,0.00,VWS V14.01,2013-07-05 11:50:00,
2013-07-05 06:52:00,67.1,64.4,29.96,WNW,302,0.0,0.0,91,0.00,,CLR,0.00,VWS V14.01,2013-07-05 11:52:00,
2013-07-05 06:57:00,67.1,64.4,29.96,WNW,302,0.0,0.0,91,0.00,,CLR,0.00,VWS V14.01,2013-07-05 11:57:00,
2013-07-05 07:00:00,67.1,64.4,29.96,WNW,302,0.0,0.0,91,0.00,,CLR,0.00,VWS V14.01,2013-07-05 12:00:00,
2013-07-05 07:03:00,67.1,64.4,29.96,SSE,154,0.0,0.0,91,0.00,,,0.00,VWS V14.01,2013-07-05 12:03:00,
2013-07-05 07:08:00,67.1,64.4,29.96,SSE,154,0.0,0.0,91,0.00,,,0.00,VWS V14.01,2013-07-05 12:08:00,
2013-07-05 07:10:00,67.1,64.4,29.96,WNW,302,0.0,0.0,91,0.00,,CLR,0.00,VWS V14.01,2013-07-05 12:10:00,
2013-07-05 07:13:00,67.1,64.4,29.96,SSE,154,0.0,0.0,91,0.00,,,0.00,VWS V14.01,2013-07-05 12:13:00,
2013-07-05 07:18:00,67.3,64.9,29.97,SSE,154,0.0,0.0,92,0.00,,,0.00,VWS V14.01,2013-07-05 12:18:00,
2013-07-05 07:20:00,67.1,64.4,29.96,SSE,154,0.0,0.0,91,0.00,,CLR,0.00,VWS V14.01,2013-07-05 12:20:00,
2013-07-05 07:23:00,67.4,65.0,29.97,SSE,154,0.0,0.0,92,0.00,,,0.00,VWS V14.01,2013-07-05 12:23:00,
2013-07-05 07:28:00,67.8,65.4,29.97,SSE,154,0.0,0.0,92,0.00,,,0.00,VWS V14.01,2013-07-05 12:28:00,
2013-07-05 07:30:00,67.3,64.6,29.97,SSE,154,0.0,0.0,91,0.00,,CLR,0.00,VWS V14.01,2013-07-05 12:30:00,
2013-07-05 07:33:00,67.9,65.5,29.97,SSE,154,0.0,0.0,92,0.00,,,0.00,VWS V14.01,2013-07-05 12:33:00,
2013-07-05 07:38:00,68.1,65.7,29.97,SSE,154,0.0,0.0,92,0.00,,,0.00,VWS V14.01,2013-07-05 12:38:00,
2013-07-05 07:40:00,67.8,65.4,29.97,SSE,154,0.0,0.0,92,0.00,,CLR,0.00,VWS V14.01,2013-07-05 12:40:00,
2013-07-05 07:44:00,68.3,65.9,29.97,SSE,154,0.0,0.0,92,0.00,,,0.00,VWS V14.01,2013-07-05 12:44:00,
2013-07-05 07:49:00,68.4,66.3,29.97,SSE,154,0.0,0.0,93,0.00,,,0.00,VWS V14.01,2013-07-05 12:49:00,
2013-07-05 07:50:00,67.9,65.5,29.97,SSE,154,0.0,0.0,92,0.00,,CLR,0.00,VWS V14.01,2013-07-05 12:50:00,
2013-07-05 07:54:00,68.6,66.5,29.97,SSE,154,0.0,0.0,93,0.00,,,0.00,VWS V14.01,2013-07-05 12:54:00,
2013-07-05 07:59:00,68.9,66.8,29.97,SSE,154,0.0,0.0,93,0.00,,,0.00,VWS V14.01,2013-07-05 12:59:00,
2013-07-05 08:00:00,68.3,65.9,29.97,SSE,154,0.0,0.0,92,0.00,,CLR,0.00,VWS V14.01,2013-07-05 13:00:00,
2013-07-05 08:04:00,69.3,67.2,29.97,SSE,154,0.0,0.0,93,0.00,,CLR,0.00,VWS V14.01,2013-07-05 13:04:00,
2013-07-05 08:09:00,69.6,67.5,29.97,SSE,154,0.0,0.0,93,0.00,,CLR,0.00,VWS V14.01,2013-07-05 13:09:00,
2013-07-05 08:10:00,68.8,66.7,29.97,SSE,154,0.0,0.0,93,0.00,,CLR,0.00,VWS V14.01,2013-07-05 13:10:00,
2013-07-05 08:15:00,69.9,67.5,29.97,SSE,154,0.0,0.0,92,0.00,,CLR,0.00,VWS V14.01,2013-07-05 13:15:00,
2013-07-05 08:20:00,70.4,68.3,29.98,SSE,154,0.0,0.0,93,0.00,,CLR,0.00,VWS V14.01,2013-07-05 13:20:00,
2013-07-05 08:25:00,71.1,69.0,29.98,SSE,154,0.0,0.0,93,0.00,,CLR,0.00,VWS V14.01,2013-07-05 13:25:00,
2013-07-05 08:30:00,72.0,69.2,29.98,SSE,154,0.0,0.0,91,0.00,,CLR,0.00,VWS V14.01,2013-07-05 13:30:00,
2013-07-05 08:35:00,72.7,69.6,29.98,SSE,154,0.0,0.0,90,0.00,,CLR,0.00,VWS V14.01,2013-07-05 13:35:00,
2013-07-05 08:40:00,73.2,69.8,29.98,SSE,154,0.0,0.0,89,0.00,,CLR,0.00,VWS V14.01,2013-07-05 13:40:00,
2013-07-05 08:46:00,73.9,70.1,29.98,SSE,154,0.0,0.0,88,0.00,,CLR,0.00,VWS V14.01,2013-07-05 13:46:00,
2013-07-05 08:50:00,72.8,69.7,29.98,SSE,154,0.0,0.0,90,0.00,,CLR,0.00,VWS V14.01,2013-07-05 13:50:00,
2013-07-05 08:51:00,74.8,70.3,29.98,SSE,154,0.0,0.0,86,0.00,,CLR,0.00,VWS V14.01,2013-07-05 13:51:00,
2013-07-05 08:56:00,75.6,70.8,29.98,SSE,154,0.0,0.0,85,0.00,,CLR,0.00,VWS V14.01,2013-07-05 13:56:00,
2013-07-05 09:00:00,74.1,70.0,29.98,SSE,154,0.0,0.0,87,0.00,,CLR,0.00,VWS V14.01,2013-07-05 14:00:00,
2013-07-05 09:01:00,76.3,70.8,29.98,SSE,154,0.0,0.0,83,0.00,,CLR,0.00,VWS V14.01,2013-07-05 14:01:00,
2013-07-05 09:06:00,76.9,70.6,29.98,SSE,154,0.0,0.0,81,0.00,,FEW020,0.00,VWS V14.01,2013-07-05 14:06:00,
2013-07-05 09:10:00,75.6,70.4,29.98,SSE,154,0.0,0.0,84,0.00,,CLR,0.00,VWS V14.01,2013-07-05 14:10:00,
2013-07-05 09:11:00,77.6,70.9,29.98,SSE,154,0.0,0.0,80,0.00,,FEW020,0.00,VWS V14.01,2013-07-05 14:11:00,
2013-07-05 09:16:00,78.1,70.3,29.98,SSE,154,0.0,0.0,77,0.00,,FEW020,0.00,VWS V14.01,2013-07-05 14:16:00,
2013-07-05 09:20:00,77.1,70.8,29.98,SSE,154,0.0,0.0,81,0.00,,CLR,0.00,VWS V14.01,2013-07-05 14:20:00,
2013-07-05 09:21:00,78.7,70.5,29.98,SSE,154,0.0,0.0,76,0.00,,FEW020,0.00,VWS V14.01,2013-07-05 14:21:00,
2013-07-05 09:26:00,79.3,69.9,29.98,SSE,154,0.0,0.0,73,0.00,,FEW020,0.00,VWS V14.01,2013-07-05 14:26:00,
2013-07-05 09:30:00,78.3,70.5,29.98,SSE,154,0.0,0.0,77,0.00,,CLR,0.00,VWS V14.01,2013-07-05 14:30:00,
2013-07-05 09:31:00,79.8,70.4,29.98,SSE,154,0.0,0.0,73,0.00,,FEW020,0.00,VWS V14.01,2013-07-05 14:31:00,
2013-07-05 09:36:00,80.4,70.6,29.98,SSE,151,0.0,0.0,72,0.00,,FEW020,0.00,VWS V14.01,2013-07-05 14:36:00,
2013-07-05 09:40:00,79.4,70.4,29.98,SSE,154,0.0,0.0,74,0.00,,CLR,0.00,VWS V14.01,2013-07-05 14:40:00,
2013-07-05 09:41:00,80.6,70.8,29.98,SSE,151,0.0,0.0,72,0.00,,FEW020,0.00,VWS V14.01,2013-07-05 14:41:00,
2013-07-05 09:47:00,81.5,71.2,29.98,SSE,151,0.0,0.0,71,0.00,,FEW020,0.00,VWS V14.01,2013-07-05 14:47:00,
2013-07-05 09:50:00,80.4,69.7,29.98,SSE,151,0.0,0.0,70,0.00,,CLR,0.00,VWS V14.01,2013-07-05 14:50:00,
2013-07-05 09:52:00,82.1,71.3,29.98,SSE,151,0.0,0.0,70,0.00,,FEW020,0.00,VWS V14.01,2013-07-05 14:52:00,
2013-07-05 09:57:00,82.5,70.0,29.98,SSE,151,0.0,0.0,66,0.00,,FEW020,0.00,VWS V14.01,2013-07-05 14:57:00,
2013-07-05 10:00:00,81.5,71.2,29.98,SSE,151,0.0,0.0,71,0.00,,CLR,0.00,VWS V14.01,2013-07-05 15:00:00,
2013-07-05 10:02:00,82.7,70.6,29.98,SSE,151,0.0,0.0,67,0.00,,FEW020,0.00,VWS V14.01,2013-07-05 15:02:00,
2013-07-05 10:07:00,82.9,69.9,29.98,SSE,151,0.0,0.0,65,0.00,,FEW030,0.00,VWS V14.01,2013-07-05 15:07:00,
2013-07-05 10:10:00,82.5,70.0,29.98,SSE,151,0.0,0.0,66,0.00,,CLR,0.00,VWS V14.01,2013-07-05 15:10:00,
2013-07-05 10:12:00,83.5,69.6,29.98,SSE,151,0.0,0.0,63,0.00,,FEW030,0.00,VWS V14.01,2013-07-05 15:12:00,
2013-07-05 10:18:00,83.8,68.9,29.98,SSE,151,0.0,0.0,61,0.00,,FEW030,0.00,VWS V14.01,2013-07-05 15:18:00,
2013-07-05 10:20:00,82.9,69.9,29.98,SSE,151,0.0,0.0,65,0.00,,CLR,0.00,VWS V14.01,2013-07-05 15:20:00,
2013-07-05 10:23:00,84.2,69.3,29.98,SSE,151,0.0,0.0,61,0.00,,FEW030,0.00,VWS V14.01,2013-07-05 15:23:00,
2013-07-05 10:28:00,84.4,70.9,29.98,SSE,151,0.0,0.0,64,0.00,,FEW030,0.00,VWS V14.01,2013-07-05 15:28:00,
2013-07-05 10:30:00,83.8,69.4,29.98,SSE,151,0.0,0.0,62,0.00,,CLR,0.00,VWS V14.01,2013-07-05 15:30:00,
2013-07-05 10:33:00,84.6,69.2,29.97,SSE,147,0.0,0.0,60,0.00,,FEW030,0.00,VWS V14.01,2013-07-05 15:33:00,
2013-07-05 10:38:00,84.6,68.7,29.97,SSE,147,0.0,0.0,59,0.00,,FEW030,0.00,VWS V14.01,2013-07-05 15:38:00,
2013-07-05 10:40:00,84.4,69.5,29.98,SSE,151,0.0,0.0,61,0.00,,CLR,0.00,VWS V14.01,2013-07-05 15:40:00,
2013-07-05 10:43:00,84.8,67.9,29.97,SSE,147,0.0,0.0,57,0.00,,FEW030,0.00,VWS V14.01,2013-07-05 15:43:00,
2013-07-05 10:48:00,85.0,68.6,29.97,SSE,147,0.0,0.0,58,0.00,,FEW030,0.00,VWS V14.01,2013-07-05 15:48:00,
2013-07-05 10:49:00,85.0,68.6,29.97,SSE,147,0.0,0.0,58,0.00,,FEW030,0.00,VWS V14.01,2013-07-05 15:49:00,
2013-07-05 10:50:00,84.6,68.7,29.97,SSE,147,0.0,0.0,59,0.00,,CLR,0.00,VWS V14.01,2013-07-05 15:50:00,
2013-07-05 10:54:00,84.8,68.9,29.97,SSE,147,0.0,0.0,59,0.00,,FEW030,0.00,VWS V14.01,2013-07-05 15:54:00,
2013-07-05 10:59:00,84.8,68.4,29.97,SE,146,0.0,0.0,58,0.00,,FEW030,0.00,VWS V14.01,2013-07-05 15:59:00,
2013-07-05 11:00:00,85.0,68.6,29.97,SSE,147,0.0,0.0,58,0.00,,CLR,0.00,VWS V14.01,2013-07-05 16:00:00,
2013-07-05 11:04:00,85.2,68.8,29.97,SE,146,0.0,0.0,58,0.00,,CLR,0.00,VWS V14.01,2013-07-05 16:04:00,
2013-07-05 11:09:00,85.8,67.8,29.97,SE,146,0.0,0.0,55,0.00,,CLR,0.00,VWS V14.01,2013-07-05 16:09:00,
2013-07-05 11:10:00,84.8,67.9,29.97,SE,146,0.0,0.0,57,0.00,,CLR,0.00,VWS V14.01,2013-07-05 16:10:00,
2013-07-05 11:14:00,86.0,68.0,29.97,SE,146,0.0,0.0,55,0.00,,CLR,0.00,VWS V14.01,2013-07-05 16:14:00,
2013-07-05 11:19:00,86.0,67.4,29.97,SE,146,0.0,0.0,54,0.00,,CLR,0.00,VWS V14.01,2013-07-05 16:19:00,
2013-07-05 11:20:00,85.4,68.4,29.97,SE,146,0.0,0.0,57,0.00,,CLR,0.00,VWS V14.01,2013-07-05 16:20:00,
2013-07-05 11:24:00,86.7,65.9,29.97,SE,146,0.0,0.0,50,0.00,,CLR,0.00,VWS V14.01,2013-07-05 16:24:00,
2013-07-05 11:29:00,87.5,69.4,29.97,SE,146,0.0,0.0,55,0.00,,CLR,0.00,VWS V14.01,2013-07-05 16:29:00,
2013-07-05 11:30:00,86.0,66.9,29.97,SE,146,0.0,0.0,53,0.00,,CLR,0.00,VWS V14.01,2013-07-05 16:30:00,
2013-07-05 11:34:00,87.9,67.5,29.97,SE,146,0.0,0.0,51,0.00,,CLR,0.00,VWS V14.01,2013-07-05 16:34:00,
2013-07-05 11:39:00,88.1,67.1,29.97,SE,146,0.0,0.0,50,0.00,,CLR,0.00,VWS V14.01,2013-07-05 16:39:00,
2013-07-05 11:40:00,86.9,65.5,29.97,SE,146,0.0,0.0,49,0.00,,CLR,0.00,VWS V14.01,2013-07-05 16:40:00,
2013-07-05 11:44:00,88.1,64.7,29.97,SE,146,0.0,0.0,46,0.00,,CLR,0.00,VWS V14.01,2013-07-05 16:44:00,
2013-07-05 11:49:00,88.8,67.8,29.96,SE,146,0.0,0.0,50,0.00,,CLR,0.00,VWS V14.01,2013-07-05 16:49:00,
2013-07-05 11:50:00,87.9,67.5,29.97,SE,146,0.0,0.0,51,0.00,,CLR,0.00,VWS V14.01,2013-07-05 16:50:00,
2013-07-05 11:54:00,89.0,64.3,29.96,SE,146,0.0,0.0,44,0.00,,CLR,0.00,VWS V14.01,2013-07-05 16:54:00,
2013-07-05 11:59:00,89.0,68.0,29.96,SE,146,0.0,0.0,50,0.00,,CLR,0.00,VWS V14.01,2013-07-05 16:59:00,
2013-07-05 12:00:00,88.3,66.7,29.96,SE,146,0.0,0.0,49,0.00,,CLR,0.00,VWS V14.01,2013-07-05 17:00:00,
2013-07-05 12:04:00,89.4,65.3,29.96,NNE,19,0.0,0.0,45,0.00,,CLR,0.00,VWS V14.01,2013-07-05 17:04:00,
2013-07-05 12:09:00,89.4,64.0,29.96,NNE,19,0.0,0.0,43,0.00,,CLR,0.00,VWS V14.01,2013-07-05 17:09:00,
2013-07-05 12:10:00,89.0,65.6,29.96,SE,146,0.0,0.0,46,0.00,,CLR,0.00,VWS V14.01,2013-07-05 17:10:00,
2013-07-05 12:14:00,89.8,66.9,29.96,NNE,19,0.0,0.0,47,0.00,,CLR,0.00,VWS V14.01,2013-07-05 17:14:00,
2013-07-05 12:19:00,90.7,70.1,29.95,NNE,19,0.0,0.0,51,0.00,,CLR,0.00,VWS V14.01,2013-07-05 17:19:00,
2013-07-05 12:20:00,89.4,67.7,29.96,NNE,19,0.0,0.0,49,0.00,,CLR,0.00,VWS V14.01,2013-07-05 17:20:00,
2013-07-05 12:25:00,91.6,61.7,29.95,NNE,19,0.0,0.0,37,0.00,,CLR,0.00,VWS V14.01,2013-07-05 17:25:00,
2013-07-05 12:30:00,91.6,63.2,29.95,NNE,19,0.0,0.0,39,0.00,,CLR,0.00,VWS V14.01,2013-07-05 17:30:00,
2013-07-05 12:35:00,91.3,63.6,29.95,NNE,19,0.0,0.0,40,0.00,,CLR,0.00,VWS V14.01,2013-07-05 17:35:00,
2013-07-05 12:40:00,91.3,65.7,29.95,NNE,19,0.0,0.0,43,0.00,,CLR,0.00,VWS V14.01,2013-07-05 17:40:00,
2013-07-05 12:45:00,91.3,65.7,29.95,NNE,19,0.0,0.0,43,0.00,,CLR,0.00,VWS V14.01,2013-07-05 17:45:00,
2013-07-05 12:50:00,91.6,64.6,29.95,NNE,19,0.0,0.0,41,0.00,,CLR,0.00,VWS V14.01,2013-07-05 17:50:00,
2013-07-05 12:55:00,91.8,66.1,29.95,NNE,18,0.0,0.0,43,0.00,,CLR,0.00,VWS V14.01,2013-07-05 17:55:00,
2013-07-05 13:00:00,92.2,64.4,29.95,NNE,18,0.0,0.0,40,0.00,,CLR,0.00,VWS V14.01,2013-07-05 18:00:00,
2013-07-05 13:05:00,92.2,62.2,29.95,NNE,16,0.0,0.0,37,0.00,,CLR,0.00,VWS V14.01,2013-07-05 18:05:00,
2013-07-05 13:10:00,92.2,63.0,29.95,NNE,16,0.0,0.0,38,0.00,,CLR,0.00,VWS V14.01,2013-07-05 18:10:00,
2013-07-05 13:15:00,92.4,66.7,29.95,NNE,16,0.0,0.0,43,0.00,,CLR,0.00,VWS V14.01,2013-07-05 18:15:00,
2013-07-05 13:20:00,92.9,63.6,29.94,NNE,16,0.0,0.0,38,0.00,,CLR,0.00,VWS V14.01,2013-07-05 18:20:00,
2013-07-05 13:25:00,92.9,63.6,29.94,NNE,16,0.0,0.0,38,0.00,,CLR,0.00,VWS V14.01,2013-07-05 18:25:00,
2013-07-05 13:30:00,93.3,63.9,29.94,NNE,16,0.0,0.0,38,0.00,,CLR,0.00,VWS V14.01,2013-07-05 18:30:00,
2013-07-05 13:35:00,93.5,61.8,29.93,NNE,16,0.0,0.0,35,0.00,,CLR,0.00,VWS V14.01,2013-07-05 18:35:00,
2013-07-05 13:40:00,94.0,60.5,29.93,NNE,16,0.0,0.0,33,0.00,,CLR,0.00,VWS V14.01,2013-07-05 18:40:00,
2013-07-05 13:45:00,94.2,59.0,29.93,NNE,16,0.0,0.0,31,0.00,,CLR,0.00,VWS V14.01,2013-07-05 18:45:00,
2013-07-05 13:50:00,94.4,61.7,29.92,NNE,16,0.0,0.0,34,0.00,,CLR,0.00,VWS V14.01,2013-07-05 18:50:00,
2013-07-05 13:55:00,94.0,59.7,29.92,NNE,16,0.0,0.0,32,0.00,,CLR,0.00,VWS V14.01,2013-07-05 18:55:00,
2013-07-05 14:00:00,93.5,61.8,29.92,NNE,16,0.0,0.0,35,0.00,,CLR,0.00,VWS V14.01,2013-07-05 19:00:00,
2013-07-05 14:05:00,93.5,59.2,29.92,NNE,16,0.0,0.0,32,0.00,,CLR,0.00,VWS V14.01,2013-07-05 19:05:00,
2013-07-05 14:10:00,93.5,60.1,29.92,NNE,16,0.0,0.0,33,0.00,,CLR,0.00,VWS V14.01,2013-07-05 19:10:00,
2013-07-05 14:15:00,94.0,57.9,29.92,NNE,16,0.0,0.0,30,0.00,,CLR,0.00,VWS V14.01,2013-07-05 19:15:00,
2013-07-05 14:20:00,94.4,60.0,29.92,NNE,16,0.0,0.0,32,0.00,,CLR,0.00,VWS V14.01,2013-07-05 19:20:00,
2013-07-05 14:25:00,94.9,62.2,29.92,NNE,16,0.0,0.0,34,0.00,,CLR,0.00,VWS V14.01,2013-07-05 19:25:00,
2013-07-05 14:30:00,94.9,58.7,29.92,NNE,16,0.0,0.0,30,0.00,,CLR,0.00,VWS V14.01,2013-07-05 19:30:00,
2013-07-05 14:35:00,94.4,60.0,29.91,NNE,16,0.0,0.0,32,0.00,,CLR,0.00,VWS V14.01,2013-07-05 19:35:00,
2013-07-05 14:40:00,94.0,61.4,29.91,NNE,16,0.0,0.0,34,0.00,,CLR,0.00,VWS V14.01,2013-07-05 19:40:00,
2013-07-05 14:45:00,93.5,58.4,29.91,NNE,16,0.0,0.0,31,0.00,,CLR,0.00,VWS V14.01,2013-07-05 19:45:00,
2013-07-05 14:50:00,92.7,59.4,29.90,NNE,16,0.0,0.0,33,0.00,,CLR,0.00,VWS V14.01,2013-07-05 19:50:00,
2013-07-05 14:55:00,92.4,59.2,29.90,East,94,0.0,0.0,33,0.00,,CLR,0.00,VWS V14.01,2013-07-05 19:55:00,
2013-07-05 15:00:00,92.4,60.8,29.90,North,9,0.0,0.0,35,0.00,,CLR,0.00,VWS V14.01,2013-07-05 20:00:00,
2013-07-05 15:05:00,92.7,58.5,29.90,North,9,0.0,0.0,32,0.00,,CLR,0.00,VWS V14.01,2013-07-05 20:05:00,
2013-07-05 15:10:00,92.9,56.9,29.90,North,9,0.0,0.0,30,0.00,,CLR,0.00,VWS V14.01,2013-07-05 20:10:00,
2013-07-05 15:15:00,93.3,56.3,29.90,WSW,243,0.0,0.0,29,0.00,,CLR,0.00,VWS V14.01,2013-07-05 20:15:00,
2013-07-05 15:20:00,93.3,57.3,29.90,WSW,243,0.0,0.0,30,0.00,,CLR,0.00,VWS V14.01,2013-07-05 20:20:00,
2013-07-05 15:25:00,93.5,61.8,29.90,WSW,244,0.0,0.0,35,0.00,,CLR,0.00,VWS V14.01,2013-07-05 20:25:00,
2013-07-05 15:30:00,93.8,59.5,29.90,WSW,244,0.0,0.0,32,0.00,,CLR,0.00,VWS V14.01,2013-07-05 20:30:00,
2013-07-05 15:35:00,93.8,55.8,29.90,WNW,283,0.0,0.0,28,0.00,,CLR,0.00,VWS V14.01,2013-07-05 20:35:00,
2013-07-05 15:40:00,93.8,60.4,29.90,WNW,299,0.0,0.0,33,0.00,,CLR,0.00,VWS V14.01,2013-07-05 20:40:00,
2013-07-05 15:45:00,93.3,59.1,29.90,WNW,299,0.0,0.0,32,0.00,,CLR,0.00,VWS V14.01,2013-07-05 20:45:00,
2013-07-05 15:50:00,92.9,59.6,29.89,WNW,299,0.0,0.0,33,0.00,,CLR,0.00,VWS V14.01,2013-07-05 20:50:00,
2013-07-05 15:55:00,93.1,59.8,29.89,WNW,299,0.0,0.0,33,0.00,,CLR,0.00,VWS V14.01,2013-07-05 20:55:00,
2013-07-05 16:00:00,93.3,56.3,29.89,WNW,299,0.0,0.0,29,0.00,,CLR,0.00,VWS V14.01,2013-07-05 21:00:00,
2013-07-05 16:05:00,93.5,54.5,29.88,NW,306,0.0,0.0,27,0.00,,CLR,0.00,VWS V14.01,2013-07-05 21:05:00,
2013-07-05 16:10:00,93.5,59.2,29.88,NW,306,0.0,0.0,32,0.00,,CLR,0.00,VWS V14.01,2013-07-05 21:10:00,
2013-07-05 16:15:00,93.3,57.3,29.88,NW,306,0.0,0.0,30,0.00,,CLR,0.00,VWS V14.01,2013-07-05 21:15:00,
2013-07-05 16:16:00,93.3,57.3,29.88,NW,306,0.0,0.0,30,0.00,,CLR,0.00,VWS V14.01,2013-07-05 21:16:00,
2013-07-05 16:20:00,93.5,54.5,29.88,NW,306,0.0,0.0,27,0.00,,CLR,0.00,VWS V14.01,2013-07-05 21:20:00,
2013-07-05 16:21:00,93.3,61.6,29.87,NW,306,0.0,0.0,35,0.00,,CLR,0.00,VWS V14.01,2013-07-05 21:21:00,
2013-07-05 16:26:00,93.3,58.2,29.87,NW,306,0.0,0.0,31,0.00,,CLR,0.00,VWS V14.01,2013-07-05 21:26:00,
2013-07-05 16:30:00,93.3,56.3,29.87,NW,306,0.0,0.0,29,0.00,,CLR,0.00,VWS V14.01,2013-07-05 21:30:00,
2013-07-05 16:31:00,93.3,57.3,29.87,NW,306,0.0,0.0,30,0.00,,CLR,0.00,VWS V14.01,2013-07-05 21:31:00,
2013-07-05 16:36:00,93.1,60.6,29.86,NW,306,0.0,0.0,34,0.00,,CLR,0.00,VWS V14.01,2013-07-05 21:36:00,
2013-07-05 16:40:00,93.3,58.2,29.87,NW,306,0.0,0.0,31,0.00,,CLR,0.00,VWS V14.01,2013-07-05 21:40:00,
2013-07-05 16:41:00,92.7,59.4,29.86,NW,306,0.0,0.0,33,0.00,,CLR,0.00,VWS V14.01,2013-07-05 21:41:00,
2013-07-05 16:46:00,92.4,58.3,29.86,NW,311,0.0,0.0,32,0.00,,CLR,0.00,VWS V14.01,2013-07-05 21:46:00,
2013-07-05 16:50:00,93.1,61.4,29.86,NW,306,0.0,0.0,35,0.00,,CLR,0.00,VWS V14.01,2013-07-05 21:50:00,
2013-07-05 16:51:00,92.7,60.2,29.85,NW,311,0.0,0.0,34,0.00,,CLR,0.00,VWS V14.01,2013-07-05 21:51:00,
2013-07-05 16:56:00,92.9,58.7,29.85,NW,311,0.0,0.0,32,0.00,,CLR,0.00,VWS V14.01,2013-07-05 21:56:00,
2013-07-05 17:00:00,92.4,60.0,29.85,NW,311,0.0,0.0,34,0.00,,CLR,0.00,VWS V14.01,2013-07-05 22:00:00,
2013-07-05 17:01:00,92.9,54.0,29.85,NNW,341,0.0,0.0,27,0.00,,CLR,0.00,VWS V14.01,2013-07-05 22:01:00,
2013-07-05 17:06:00,92.9,61.2,29.84,NNW,341,0.0,0.0,35,0.00,,SCT090,0.00,VWS V14.01,2013-07-05 22:06:00,
2013-07-05 17:10:00,92.9,58.7,29.85,NW,311,0.0,0.0,32,0.00,,CLR,0.00,VWS V14.01,2013-07-05 22:10:00,
2013-07-05 17:11:00,92.7,56.8,29.84,NNW,343,0.0,0.0,30,0.00,,SCT090,0.00,VWS V14.01,2013-07-05 22:11:00,
2013-07-05 17:16:00,92.9,57.8,29.84,NNW,343,0.0,0.0,31,0.00,,SCT090,0.00,VWS V14.01,2013-07-05 22:16:00,
2013-07-05 17:20:00,92.9,59.6,29.84,NNW,341,0.0,0.0,33,0.00,,CLR,0.00,VWS V14.01,2013-07-05 22:20:00,
2013-07-05 17:21:00,92.9,57.8,29.84,NNW,343,0.0,0.0,31,0.00,,SCT090,0.00,VWS V14.01,2013-07-05 22:21:00,
2013-07-05 17:26:00,93.1,56.2,29.84,NNW,343,0.0,0.0,29,0.00,,SCT090,0.00,VWS V14.01,2013-07-05 22:26:00,
2013-07-05 17:30:00,92.9,56.9,29.84,NNW,343,0.0,0.0,30,0.00,,CLR,0.00,VWS V14.01,2013-07-05 22:30:00,
2013-07-05 17:31:00,92.9,56.0,29.84,NNW,343,0.0,0.0,29,0.00,,SCT090,0.00,VWS V14.01,2013-07-05 22:31:00,
2013-07-05 17:36:00,92.7,61.1,29.84,NNW,343,0.0,0.0,35,0.00,,SCT090,0.00,VWS V14.01,2013-07-05 22:36:00,
2013-07-05 17:40:00,93.1,58.0,29.84,NNW,343,0.0,0.0,31,0.00,,CLR,0.00,VWS V14.01,2013-07-05 22:40:00,
2013-07-05 17:41:00,92.4,58.3,29.84,NNW,343,0.0,0.0,32,0.00,,SCT090,0.00,VWS V14.01,2013-07-05 22:41:00,
2013-07-05 17:46:00,92.2,53.4,29.84,NNW,343,0.0,0.0,27,0.00,,SCT090,0.00,VWS V14.01,2013-07-05 22:46:00,
2013-07-05 17:50:00,92.7,59.4,29.84,NNW,343,0.0,0.0,33,0.00,,CLR,0.00,VWS V14.01,2013-07-05 22:50:00,
2013-07-05 17:51:00,92.2,55.4,29.84,NNW,343,0.0,0.0,29,0.00,,SCT090,0.00,VWS V14.01,2013-07-05 22:51:00,
2013-07-05 17:56:00,92.2,62.2,29.84,NNW,343,0.0,0.0,37,0.00,,SCT090,0.00,VWS V14.01,2013-07-05 22:56:00,
2013-07-05 18:00:00,92.2,58.1,29.84,NNW,343,0.0,0.0,32,0.00,,CLR,0.00,VWS V14.01,2013-07-05 23:00:00,
2013-07-05 18:01:00,92.2,59.8,29.83,NNW,343,0.0,0.0,34,0.00,,SCT090,0.00,VWS V14.01,2013-07-05 23:01:00,
2013-07-05 18:06:00,91.8,61.1,29.83,NNW,343,0.0,0.0,36,0.00,,CLR,0.00,VWS V14.01,2013-07-05 23:06:00,
2013-07-05 18:10:00,92.2,62.2,29.84,NNW,343,0.0,0.0,37,0.00,,CLR,0.00,VWS V14.01,2013-07-05 23:10:00,
2013-07-05 18:11:00,91.6,55.8,29.83,NNW,343,0.0,0.0,30,0.00,,CLR,0.00,VWS V14.01,2013-07-05 23:11:00,
2013-07-05 18:16:00,91.6,58.5,29.83,NNW,343,0.0,0.0,33,0.00,,CLR,0.00,VWS V14.01,2013-07-05 23:16:00,
2013-07-05 18:20:00,91.8,59.5,29.83,NNW,343,0.0,0.0,34,0.00,,CLR,0.00,VWS V14.01,2013-07-05 23:20:00,
2013-07-05 18:21:00,91.3,57.3,29.83,NNW,343,0.0,0.0,32,0.00,,CLR,0.00,VWS V14.01,2013-07-05 23:21:00,
2013-07-05 18:26:00,91.3,58.2,29.83,NNW,343,0.0,0.0,33,0.00,,CLR,0.00,VWS V14.01,2013-07-05 23:26:00,
2013-07-05 18:30:00,91.6,56.7,29.83,NNW,343,0.0,0.0,31,0.00,,CLR,0.00,VWS V14.01,2013-07-05 23:30:00,
2013-07-05 18:31:00,91.3,57.3,29.83,NNW,343,0.0,0.0,32,0.00,,CLR,0.00,VWS V14.01,2013-07-05 23:31:00,
2013-07-05 18:36:00,91.1,57.2,29.83,NNW,343,0.0,0.0,32,0.00,,CLR,0.00,VWS V14.01,2013-07-05 23:36:00,
2013-07-05 18:40:00,91.3,58.2,29.83,NNW,343,0.0,0.0,33,0.00,,CLR,0.00,VWS V14.01,2013-07-05 23:40:00,
2013-07-05 18:41:00,90.9,57.0,29.83,NNW,343,0.0,0.0,32,0.00,,CLR,0.00,VWS V14.01,2013-07-05 23:41:00,
2013-07-05 18:46:00,90.7,57.7,29.83,NNW,343,0.0,0.0,33,0.00,,CLR,0.00,VWS V14.01,2013-07-05 23:46:00,
2013-07-05 18:50:00,91.1,57.2,29.83,NNW,343,0.0,0.0,32,0.00,,CLR,0.00,VWS V14.01,2013-07-05 23:50:00,
2013-07-05 18:51:00,90.5,55.8,29.83,NNW,343,0.0,0.0,31,0.00,,CLR,0.00,VWS V14.01,2013-07-05 23:51:00,
2013-07-05 18:56:00,90.5,57.5,29.83,NNW,343,0.0,0.0,33,0.00,,CLR,0.00,VWS V14.01,2013-07-05 23:56:00,
2013-07-05 19:00:00,90.7,56.8,29.83,NNW,343,0.0,0.0,32,0.00,,CLR,0.00,VWS V14.01,2013-07-06 00:00:00,
2013-07-05 19:01:00,90.2,57.2,29.83,NNW,343,0.0,0.0,33,0.00,,CLR,0.00,VWS V14.01,2013-07-06 00:01:00,
2013-07-05 19:06:00,89.8,60.1,29.83,NNW,343,0.0,0.0,37,0.00,,FEW100,0.00,VWS V14.01,2013-07-06 00:06:00,
2013-07-05 19:10:00,90.5,56.6,29.83,NNW,343,0.0,0.0,32,0.00,,CLR,0.00,VWS V14.01,2013-07-06 00:10:00,
2013-07-05 19:11:00,89.4,60.5,29.83,NNW,343,0.0,0.0,38,0.00,,FEW100,0.00,VWS V14.01,2013-07-06 00:11:00,
2013-07-05 19:16:00,89.0,59.4,29.83,NNW,343,0.0,0.0,37,0.00,,FEW100,0.00,VWS V14.01,2013-07-06 00:16:00,
2013-07-05 19:20:00,89.8,60.1,29.83,NNW,343,0.0,0.0,37,0.00,,CLR,0.00,VWS V14.01,2013-07-06 00:20:00,
2013-07-05 19:21:00,88.5,59.7,29.83,NNW,343,0.0,0.0,38,0.00,,FEW100,0.00,VWS V14.01,2013-07-06 00:21:00,
2013-07-05 19:27:00,88.3,60.9,29.83,NNW,343,0.0,0.0,40,0.00,,FEW100,0.00,VWS V14.01,2013-07-06 00:27:00,
2013-07-05 19:30:00,89.0,59.4,29.83,NNW,343,0.0,0.0,37,0.00,,CLR,0.00,VWS V14.01,2013-07-06 00:30:00,
2013-07-05 19:32:00,87.9,59.2,29.83,NNW,343,0.0,0.0,38,0.00,,FEW100,0.00,VWS V14.01,2013-07-06 00:32:00,
2013-07-05 19:37:00,87.7,59.0,29.83,NNW,343,0.0,0.0,38,0.00,,FEW100,0.00,VWS V14.01,2013-07-06 00:37:00,
2013-07-05 19:40:00,88.3,60.9,29.83,NNW,343,0.0,0.0,40,0.00,,CLR,0.00,VWS V14.01,2013-07-06 00:40:00,
2013-07-05 19:42:00,87.3,61.4,29.83,NNW,343,0.0,0.0,42,0.00,,FEW100,0.00,VWS V14.01,2013-07-06 00:42:00,
2013-07-05 19:47:00,86.9,61.1,29.83,NNW,343,0.0,0.0,42,0.00,,FEW100,0.00,VWS V14.01,2013-07-06 00:47:00,
2013-07-05 19:50:00,87.7,59.0,29.83,NNW,343,0.0,0.0,38,0.00,,CLR,0.00,VWS V14.01,2013-07-06 00:50:00,
2013-07-05 19:52:00,86.5,60.0,29.83,NNW,343,0.0,0.0,41,0.00,,FEW100,0.00,VWS V14.01,2013-07-06 00:52:00,
2013-07-05 19:57:00,86.0,61.6,29.83,NNW,343,0.0,0.0,44,0.00,,FEW100,0.00,VWS V14.01,2013-07-06 00:57:00,
2013-07-05 20:00:00,86.9,61.1,29.83,NNW,343,0.0,0.0,42,0.00,,CLR,0.00,VWS V14.01,2013-07-06 01:00:00,
2013-07-05 20:02:00,85.6,60.6,29.83,NNW,343,0.0,0.0,43,0.00,,FEW100,0.00,VWS V14.01,2013-07-06 01:02:00,
2013-07-05 20:07:00,85.0,60.0,29.83,NNW,343,0.0,0.0,43,0.00,,CLR,0.00,VWS V14.01,2013-07-06 01:07:00,
2013-07-05 20:10:00,86.0,61.6,29.83,NNW,343,0.0,0.0,44,0.00,,CLR,0.00,VWS V14.01,2013-07-06 01:10:00,
2013-07-05 20:12:00,84.8,59.8,29.83,NNW,343,0.0,0.0,43,0.00,,CLR,0.00,VWS V14.01,2013-07-06 01:12:00,
2013-07-05 20:17:00,84.4,60.1,29.84,NNW,343,0.0,0.0,44,0.00,,CLR,0.00,VWS V14.01,2013-07-06 01:17:00,
2013-07-05 20:20:00,85.2,60.8,29.83,NNW,343,0.0,0.0,44,0.00,,CLR,0.00,VWS V14.01,2013-07-06 01:20:00,
2013-07-05 20:22:00,84.0,59.8,29.84,NNW,343,0.0,0.0,44,0.00,,CLR,0.00,VWS V14.01,2013-07-06 01:22:00,
2013-07-05 20:27:00,83.8,62.6,29.84,NNW,343,0.0,0.0,49,0.00,,CLR,0.00,VWS V14.01,2013-07-06 01:27:00,
2013-07-05 20:30:00,84.4,60.1,29.84,NNW,343,0.0,0.0,44,0.00,,CLR,0.00,VWS V14.01,2013-07-06 01:30:00,
2013-07-05 20:32:00,83.5,59.3,29.84,NNW,343,0.0,0.0,44,0.00,,CLR,0.00,VWS V14.01,2013-07-06 01:32:00,
2013-07-05 20:37:00,83.1,59.0,29.84,NNW,343,0.0,0.0,44,0.00,,CLR,0.00,VWS V14.01,2013-07-06 01:37:00,
2013-07-05 20:40:00,83.8,62.6,29.84,NNW,343,0.0,0.0,49,0.00,,CLR,0.00,VWS V14.01,2013-07-06 01:40:00,
2013-07-05 20:42:00,82.9,58.8,29.84,NNW,343,0.0,0.0,44,0.00,,CLR,0.00,VWS V14.01,2013-07-06 01:42:00,
2013-07-05 20:47:00,82.7,59.2,29.85,NNW,343,0.0,0.0,45,0.00,,CLR,0.00,VWS V14.01,2013-07-06 01:47:00,
2013-07-05 20:50:00,83.3,59.1,29.84,NNW,343,0.0,0.0,44,0.00,,CLR,0.00,VWS V14.01,2013-07-06 01:50:00,
2013-07-05 20:52:00,82.5,59.0,29.85,NNW,343,0.0,0.0,45,0.00,,CLR,0.00,VWS V14.01,2013-07-06 01:52:00,
2013-07-05 20:57:00,82.5,60.3,29.85,NNW,343,0.0,0.0,47,0.00,,CLR,0.00,VWS V14.01,2013-07-06 01:57:00,
2013-07-05 21:00:00,82.7,59.2,29.85,NNW,343,0.0,0.0,45,0.00,,CLR,0.00,VWS V14.01,2013-07-06 02:00:00,
2013-07-05 21:02:00,82.7,59.8,29.86,NNW,344,0.0,0.0,46,0.00,,CLR,0.00,VWS V14.01,2013-07-06 02:02:00,
2013-07-05 21:07:00,83.3,62.2,29.86,NNW,333,0.0,0.0,49,0.00,,BKN100,0.00,VWS V14.01,2013-07-06 02:07:00,
2013-07-05 21:10:00,82.5,60.3,29.85,NNW,343,0.0,0.0,47,0.00,,CLR,0.00,VWS V14.01,2013-07-06 02:10:00,
2013-07-05 21:12:00,83.8,63.8,29.86,SSE,155,0.0,0.0,51,0.00,,BKN100,0.00,VWS V14.01,2013-07-06 02:12:00,
2013-07-05 21:17:00,84.4,64.9,29.86,South,177,0.0,0.0,52,0.00,,BKN100,0.00,VWS V14.01,2013-07-06 02:17:00,
2013-07-05 21:20:00,83.3,62.2,29.86,NNW,344,0.0,0.0,49,0.00,,CLR,0.00,VWS V14.01,2013-07-06 02:20:00,
2013-07-05 21:22:00,84.4,64.9,29.86,South,177,0.0,0.0,52,0.00,,BKN100,0.00,VWS V14.01,2013-07-06 02:22:00,
2013-07-05 21:27:00,84.2,65.2,29.86,South,177,0.0,0.0,53,0.00,,BKN100,0.00,VWS V14.01,2013-07-06 02:27:00,
2013-07-05 21:30:00,84.2,64.7,29.86,South,177,0.0,0.0,52,0.00,,CLR,0.00,VWS V14.01,2013-07-06 02:30:00,
2013-07-05 21:32:00,84.2,64.7,29.87,East,99,0.0,0.0,52,0.00,,BKN100,0.00,VWS V14.01,2013-07-06 02:32:00,
2013-07-05 21:37:00,84.0,65.1,29.87,East,98,0.0,0.0,53,0.00,,BKN100,0.00,VWS V14.01,2013-07-06 02:37:00,
2013-07-05 21:40:00,84.2,65.2,29.86,South,177,0.0,0.0,53,0.00,,CLR,0.00,VWS V14.01,2013-07-06 02:40:00,
2013-07-05 21:42:00,83.8,64.3,29.87,East,98,0.0,0.0,52,0.00,,BKN100,0.00,VWS V14.01,2013-07-06 02:42:00,
2013-07-05 21:47:00,83.6,64.7,29.87,East,98,0.0,0.0,53,0.00,,BKN100,0.00,VWS V14.01,2013-07-06 02:47:00,
2013-07-05 21:50:00,84.0,65.1,29.87,East,98,0.0,0.0,53,0.00,,CLR,0.00,VWS V14.01,2013-07-06 02:50:00,
2013-07-05 21:52:00,83.5,65.1,29.87,East,98,0.0,0.0,54,0.00,,BKN100,0.00,VWS V14.01,2013-07-06 02:52:00,
2013-07-05 21:57:00,83.3,65.5,29.87,East,98,0.0,0.0,55,0.00,,BKN100,0.00,VWS V14.01,2013-07-06 02:57:00,
2013-07-05 22:00:00,83.8,64.9,29.87,East,98,0.0,0.0,53,0.00,,CLR,0.00,VWS V14.01,2013-07-06 03:00:00,
2013-07-05 22:02:00,83.1,65.3,29.88,East,98,0.0,0.0,55,0.00,,CLR,0.00,VWS V14.01,2013-07-06 03:02:00,
2013-07-05 22:07:00,83.1,65.3,29.88,East,98,0.0,0.0,55,0.00,,CLR,0.00,VWS V14.01,2013-07-06 03:07:00,
2013-07-05 22:10:00,83.3,64.9,29.87,East,98,0.0,0.0,54,0.00,,CLR,0.00,VWS V14.01,2013-07-06 03:10:00,
2013-07-05 22:13:00,82.9,65.6,29.88,East,89,0.0,0.0,56,0.00,,CLR,0.00,VWS V14.01,2013-07-06 03:13:00,
2013-07-05 22:18:00,82.7,65.9,29.89,East,89,0.0,0.0,57,0.00,,CLR,0.00,VWS V14.01,2013-07-06 03:18:00,
2013-07-05 22:20:00,83.1,65.3,29.88,East,98,0.0,0.0,55,0.00,,CLR,0.00,VWS V14.01,2013-07-06 03:20:00,
2013-07-05 22:23:00,82.7,65.9,29.89,NW,316,0.0,0.0,57,0.00,,CLR,0.00,VWS V14.01,2013-07-06 03:23:00,
2013-07-05 22:28:00,82.5,66.2,29.89,NW,316,0.0,0.0,58,0.00,,CLR,0.00,VWS V14.01,2013-07-06 03:28:00,
2013-07-05 22:30:00,82.9,66.1,29.89,East,89,0.0,0.0,57,0.00,,CLR,0.00,VWS V14.01,2013-07-06 03:30:00,
2013-07-05 22:32:00,82.5,66.2,29.89,NW,316,0.0,0.0,58,0.00,,CLR,0.00,VWS V14.01,2013-07-06 03:32:00,
2013-07-05 22:37:00,82.3,66.1,29.89,NW,316,0.0,0.0,58,0.00,,CLR,0.00,VWS V14.01,2013-07-06 03:37:00,
2013-07-05 22:40:00,82.5,66.2,29.89,NW,316,0.0,0.0,58,0.00,,CLR,0.00,VWS V14.01,2013-07-06 03:40:00,
2013-07-05 22:43:00,82.1,66.4,29.89,NW,316,0.0,0.0,59,0.00,,CLR,0.00,VWS V14.01,2013-07-06 03:43:00,
2013-07-05 22:48:00,81.9,66.7,29.89,NW,321,0.0,0.0,60,0.00,,CLR,0.00,VWS V14.01,2013-07-06 03:48:00,
2013-07-05 22:50:00,82.3,66.6,29.89,NW,316,0.0,0.0,59,0.00,,CLR,0.00,VWS V14.01,2013-07-06 03:50:00,
2013-07-05 22:52:00,81.7,66.0,29.89,NW,321,0.0,0.0,59,0.00,,CLR,0.00,VWS V14.01,2013-07-06 03:52:00,
2013-07-05 22:57:00,81.7,66.5,29.89,NW,321,0.0,0.0,60,0.00,,CLR,0.00,VWS V14.01,2013-07-06 03:57:00,
2013-07-05 23:00:00,81.9,66.2,29.89,NW,321,0.0,0.0,59,0.00,,CLR,0.00,VWS V14.01,2013-07-06 04:00:00,
2013-07-05 23:01:00,81.5,66.3,29.89,NW,321,0.0,0.0,60,0.00,,CLR,0.00,VWS V14.01,2013-07-06 04:01:00,
2013-07-05 23:06:00,81.5,66.8,29.90,NW,321,0.0,0.0,61,0.00,,CLR,0.00,VWS V14.01,2013-07-06 04:06:00,
2013-07-05 23:10:00,81.7,66.5,29.89,NW,321,0.0,0.0,60,0.00,,CLR,0.00,VWS V14.01,2013-07-06 04:10:00,
2013-07-05 23:11:00,81.3,66.6,29.90,NW,321,0.0,0.0,61,0.00,,CLR,0.00,VWS V14.01,2013-07-06 04:11:00,
2013-07-05 23:16:00,81.3,67.1,29.91,NW,321,0.0,0.0,62,0.00,,CLR,0.00,VWS V14.01,2013-07-06 04:16:00,
2013-07-05 23:20:00,81.5,66.8,29.90,NW,321,0.0,0.0,61,0.00,,CLR,0.00,VWS V14.01,2013-07-06 04:20:00,
2013-07-05 23:21:00,81.1,67.3,29.91,NW,320,0.0,0.0,63,0.00,,CLR,0.00,VWS V14.01,2013-07-06 04:21:00,
2013-07-05 23:26:00,80.9,67.6,29.91,NW,320,0.0,0.0,64,0.00,,CLR,0.00,VWS V14.01,2013-07-06 04:26:00,
2013-07-05 23:30:00,81.3,67.1,29.91,NW,321,0.0,0.0,62,0.00,,CLR,0.00,VWS V14.01,2013-07-06 04:30:00,
2013-07-05 23:31:00,80.9,68.0,29.92,NW,320,0.0,0.0,65,0.00,,CLR,0.00,VWS V14.01,2013-07-06 04:31:00,
2013-07-05 23:36:00,80.7,67.8,29.92,NW,320,0.0,0.0,65,0.00,,CLR,0.00,VWS V14.01,2013-07-06 04:36:00,
2013-07-05 23:40:00,80.9,67.6,29.91,NW,320,0.0,0.0,64,0.00,,CLR,0.00,VWS V14.01,2013-07-06 04:40:00,
2013-07-05 23:41:00,80.6,67.8,29.92,NW,320,0.0,0.0,65,0.00,,CLR,0.00,VWS V14.01,2013-07-06 04:41:00,
2013-07-05 23:46:00,80.4,68.0,29.92,NW,320,0.0,0.0,66,0.00,,CLR,0.00,VWS V14.01,2013-07-06 04:46:00,
2013-07-05 23:50:00,80.7,67.8,29.92,NW,320,0.0,0.0,65,0.00,,CLR,0.00,VWS V14.01,2013-07-06 04:50:00,
2013-07-05 23:51:00,80.2,67.8,29.92,NW,320,0.0,0.0,66,0.00,,CLR,0.00,VWS V14.01,2013-07-06 04:51:00,
2013-07-05 23:56:00,80.0,67.6,29.92,NW,319,0.0,0.0,66,0.00,,CLR,0.00,VWS V14.01,2013-07-06 04:56:00,